sensor_id;sensor_type;location;lat;lon;timestamp;pressure;altitude;pressure_sealevel;temperature;humidity
80184;BME280;69682;52.138;5.440;2023-07-20T00:02:17;101524.53;;;16.54;78.13
80184;BME280;69682;52.138;5.440;2023-07-20T00:04:44;101519.44;;;16.51;77.77
80184;BME280;69682;52.138;5.440;2023-07-20T00:07:11;101525.66;;;16.52;77.63
80184;BME280;69682;52.138;5.440;2023-07-20T00:09:37;101522.13;;;16.51;77.97
80184;BME280;69682;52.138;5.440;2023-07-20T00:12:04;101517.75;;;16.50;78.26
80184;BME280;69682;52.138;5.440;2023-07-20T00:14:30;101516.06;;;16.59;78.31
80184;BME280;69682;52.138;5.440;2023-07-20T00:16:58;101520.16;;;16.53;77.88
80184;BME280;69682;52.138;5.440;2023-07-20T00:19:26;101515.06;;;16.50;78.04
80184;BME280;69682;52.138;5.440;2023-07-20T00:21:53;101517.03;;;16.48;78.45
80184;BME280;69682;52.138;5.440;2023-07-20T00:24:21;101516.88;;;16.50;78.54
80184;BME280;69682;52.138;5.440;2023-07-20T00:26:48;101516.47;;;16.54;78.67
80184;BME280;69682;52.138;5.440;2023-07-20T00:29:15;101512.22;;;16.52;78.34
80184;BME280;69682;52.138;5.440;2023-07-20T00:31:41;101516.75;;;16.51;77.97
80184;BME280;69682;52.138;5.440;2023-07-20T00:34:10;101516.19;;;16.48;77.93
80184;BME280;69682;52.138;5.440;2023-07-20T00:36:36;101520.00;;;16.45;77.66
80184;BME280;69682;52.138;5.440;2023-07-20T00:39:03;101519.84;;;16.37;77.45
80184;BME280;69682;52.138;5.440;2023-07-20T00:41:30;101517.88;;;16.39;78.01
80184;BME280;69682;52.138;5.440;2023-07-20T00:43:58;101506.84;;;16.42;77.17
80184;BME280;69682;52.138;5.440;2023-07-20T00:46:24;101516.88;;;16.40;77.75
80184;BME280;69682;52.138;5.440;2023-07-20T00:48:52;101506.84;;;16.42;77.14
80184;BME280;69682;52.138;5.440;2023-07-20T00:51:21;101514.63;;;16.35;77.32
80184;BME280;69682;52.138;5.440;2023-07-20T00:53:48;101512.31;;;16.31;77.35
80184;BME280;69682;52.138;5.440;2023-07-20T00:56:15;101513.59;;;16.27;77.74
80184;BME280;69682;52.138;5.440;2023-07-20T00:58:42;101521.06;;;16.23;77.85
80184;BME280;69682;52.138;5.440;2023-07-20T01:01:09;101516.84;;;16.21;77.47
80184;BME280;69682;52.138;5.440;2023-07-20T01:03:36;101514.53;;;16.16;78.00
80184;BME280;69682;52.138;5.440;2023-07-20T01:09:13;101520.78;;;16.17;77.44
80184;BME280;69682;52.138;5.440;2023-07-20T01:11:57;101524.47;;;16.16;78.02
80184;BME280;69682;52.138;5.440;2023-07-20T01:14:26;101525.13;;;16.08;78.04
80184;BME280;69682;52.138;5.440;2023-07-20T01:16:53;101518.91;;;16.07;77.69
80184;BME280;69682;52.138;5.440;2023-07-20T01:19:20;101516.88;;;16.00;78.17
80184;BME280;69682;52.138;5.440;2023-07-20T01:25:16;101524.09;;;15.99;77.94
80184;BME280;69682;52.138;5.440;2023-07-20T01:28:13;101517.75;;;16.00;77.83
80184;BME280;69682;52.138;5.440;2023-07-20T01:33:41;101525.75;;;15.90;77.61
80184;BME280;69682;52.138;5.440;2023-07-20T01:36:08;101527.56;;;15.80;77.80
80184;BME280;69682;52.138;5.440;2023-07-20T01:38:36;101527.41;;;15.82;77.47
80184;BME280;69682;52.138;5.440;2023-07-20T01:41:03;101519.09;;;15.85;77.82
80184;BME280;69682;52.138;5.440;2023-07-20T01:43:30;101522.19;;;15.80;78.02
80184;BME280;69682;52.138;5.440;2023-07-20T01:45:57;101525.00;;;15.79;77.87
80184;BME280;69682;52.138;5.440;2023-07-20T01:48:23;101523.31;;;15.78;77.93
80184;BME280;69682;52.138;5.440;2023-07-20T01:50:50;101518.47;;;15.72;77.97
80184;BME280;69682;52.138;5.440;2023-07-20T01:53:17;101521.88;;;15.74;77.84
80184;BME280;69682;52.138;5.440;2023-07-20T01:55:44;101532.75;;;15.72;77.69
80184;BME280;69682;52.138;5.440;2023-07-20T01:58:10;101532.19;;;15.69;77.63
80184;BME280;69682;52.138;5.440;2023-07-20T02:00:37;101538.75;;;15.64;77.92
80184;BME280;69682;52.138;5.440;2023-07-20T02:03:05;101538.03;;;15.62;78.24
80184;BME280;69682;52.138;5.440;2023-07-20T02:05:34;101535.91;;;15.56;78.31
80184;BME280;69682;52.138;5.440;2023-07-20T02:08:00;101531.38;;;15.57;78.54
80184;BME280;69682;52.138;5.440;2023-07-20T02:10:27;101532.09;;;15.59;78.52
80184;BME280;69682;52.138;5.440;2023-07-20T02:12:54;101525.72;;;15.60;78.34
80184;BME280;69682;52.138;5.440;2023-07-20T02:15:22;101527.84;;;15.56;78.49
80184;BME280;69682;52.138;5.440;2023-07-20T02:17:48;101534.31;;;15.54;78.71
80184;BME280;69682;52.138;5.440;2023-07-20T02:20:15;101532.34;;;15.56;79.09
80184;BME280;69682;52.138;5.440;2023-07-20T02:22:42;101532.16;;;15.48;79.17
80184;BME280;69682;52.138;5.440;2023-07-20T02:25:08;101532.44;;;15.44;79.23
80184;BME280;69682;52.138;5.440;2023-07-20T02:27:36;101532.81;;;15.40;79.22
80184;BME280;69682;52.138;5.440;2023-07-20T02:30:03;101538.44;;;15.37;79.58
80184;BME280;69682;52.138;5.440;2023-07-20T02:32:30;101538.25;;;15.29;79.19
80184;BME280;69682;52.138;5.440;2023-07-20T02:34:58;101538.25;;;15.29;79.67
80184;BME280;69682;52.138;5.440;2023-07-20T02:37:25;101529.34;;;15.28;79.69
80184;BME280;69682;52.138;5.440;2023-07-20T02:39:51;101538.38;;;15.27;79.35
80184;BME280;69682;52.138;5.440;2023-07-20T02:42:18;101531.19;;;15.28;79.11
80184;BME280;69682;52.138;5.440;2023-07-20T02:44:47;101532.88;;;15.29;79.28
80184;BME280;69682;52.138;5.440;2023-07-20T02:47:14;101533.72;;;15.29;79.43
80184;BME280;69682;52.138;5.440;2023-07-20T02:49:40;101524.81;;;15.29;79.09
80184;BME280;69682;52.138;5.440;2023-07-20T02:52:07;101526.41;;;15.31;78.89
80184;BME280;69682;52.138;5.440;2023-07-20T02:54:34;101539.69;;;15.33;78.65
80184;BME280;69682;52.138;5.440;2023-07-20T02:57:01;101539.97;;;15.30;78.47
80184;BME280;69682;52.138;5.440;2023-07-20T02:59:27;101540.91;;;15.29;78.63
80184;BME280;69682;52.138;5.440;2023-07-20T03:01:54;101547.28;;;15.28;78.47
80184;BME280;69682;52.138;5.440;2023-07-20T03:04:21;101544.88;;;15.25;78.45
80184;BME280;69682;52.138;5.440;2023-07-20T03:06:48;101551.91;;;15.05;78.51
80184;BME280;69682;52.138;5.440;2023-07-20T03:09:15;101561.19;;;15.01;78.94
80184;BME280;69682;52.138;5.440;2023-07-20T03:11:42;101565.50;;;14.92;79.17
80184;BME280;69682;52.138;5.440;2023-07-20T03:14:08;101562.22;;;14.88;79.45
80184;BME280;69682;52.138;5.440;2023-07-20T03:16:37;101564.03;;;14.88;79.49
80184;BME280;69682;52.138;5.440;2023-07-20T03:19:03;101570.66;;;14.84;80.05
80184;BME280;69682;52.138;5.440;2023-07-20T03:21:30;101567.22;;;14.82;80.24
80184;BME280;69682;52.138;5.440;2023-07-20T03:23:56;101575.66;;;14.77;80.47
80184;BME280;69682;52.138;5.440;2023-07-20T03:26:23;101575.03;;;14.73;80.49
80184;BME280;69682;52.138;5.440;2023-07-20T03:28:50;101574.69;;;14.78;80.32
80184;BME280;69682;52.138;5.440;2023-07-20T03:31:17;101577.69;;;14.85;80.04
80184;BME280;69682;52.138;5.440;2023-07-20T03:33:43;101571.81;;;14.91;79.76
80184;BME280;69682;52.138;5.440;2023-07-20T03:36:10;101570.72;;;14.93;79.12
80184;BME280;69682;52.138;5.440;2023-07-20T03:38:37;101572.31;;;14.96;79.20
80184;BME280;69682;52.138;5.440;2023-07-20T03:41:03;101563.06;;;14.89;78.77
80184;BME280;69682;52.138;5.440;2023-07-20T03:43:30;101567.25;;;14.70;79.64
80184;BME280;69682;52.138;5.440;2023-07-20T03:45:56;101568.63;;;14.65;79.91
80184;BME280;69682;52.138;5.440;2023-07-20T03:48:24;101568.41;;;14.57;80.22
80184;BME280;69682;52.138;5.440;2023-07-20T03:50:52;101571.34;;;14.53;80.34
80184;BME280;69682;52.138;5.440;2023-07-20T03:53:19;101574.22;;;14.50;80.47
80184;BME280;69682;52.138;5.440;2023-07-20T03:55:51;101569.72;;;14.51;80.45
80184;BME280;69682;52.138;5.440;2023-07-20T03:58:19;101575.44;;;14.46;80.61
80184;BME280;69682;52.138;5.440;2023-07-20T04:00:48;101573.41;;;14.39;80.65
80184;BME280;69682;52.138;5.440;2023-07-20T04:03:14;101576.44;;;14.45;80.73
80184;BME280;69682;52.138;5.440;2023-07-20T04:05:42;101580.81;;;14.58;80.40
80184;BME280;69682;52.138;5.440;2023-07-20T04:08:09;101581.31;;;14.63;80.15
80184;BME280;69682;52.138;5.440;2023-07-20T04:10:38;101582.41;;;14.60;80.21
80184;BME280;69682;52.138;5.440;2023-07-20T04:13:05;101582.78;;;14.44;80.76
80184;BME280;69682;52.138;5.440;2023-07-20T04:15:32;101584.47;;;14.45;80.91
80184;BME280;69682;52.138;5.440;2023-07-20T04:17:59;101589.69;;;14.47;81.28
80184;BME280;69682;52.138;5.440;2023-07-20T04:20:27;101591.56;;;14.58;81.10
80184;BME280;69682;52.138;5.440;2023-07-20T04:22:54;101591.44;;;14.59;80.80
80184;BME280;69682;52.138;5.440;2023-07-20T04:25:20;101593.88;;;14.62;80.92
80184;BME280;69682;52.138;5.440;2023-07-20T04:27:47;101599.25;;;14.62;80.74
80184;BME280;69682;52.138;5.440;2023-07-20T04:30:14;101600.94;;;14.63;80.74
80184;BME280;69682;52.138;5.440;2023-07-20T04:32:41;101598.84;;;14.67;80.20
80184;BME280;69682;52.138;5.440;2023-07-20T04:35:10;101593.63;;;14.65;80.67
80184;BME280;69682;52.138;5.440;2023-07-20T04:37:37;101594.13;;;14.59;81.11
80184;BME280;69682;52.138;5.440;2023-07-20T04:40:04;101593.13;;;14.60;81.28
80184;BME280;69682;52.138;5.440;2023-07-20T04:42:31;101607.25;;;14.51;81.28
80184;BME280;69682;52.138;5.440;2023-07-20T04:44:58;101617.63;;;14.44;81.22
80184;BME280;69682;52.138;5.440;2023-07-20T04:47:24;101621.50;;;14.40;81.18
80184;BME280;69682;52.138;5.440;2023-07-20T04:49:51;101620.16;;;14.46;81.43
80184;BME280;69682;52.138;5.440;2023-07-20T04:52:18;101612.03;;;14.47;81.09
80184;BME280;69682;52.138;5.440;2023-07-20T04:54:44;101613.97;;;14.45;81.18
80184;BME280;69682;52.138;5.440;2023-07-20T04:57:11;101615.06;;;14.43;81.02
80184;BME280;69682;52.138;5.440;2023-07-20T04:59:39;101612.03;;;14.36;81.03
80184;BME280;69682;52.138;5.440;2023-07-20T05:02:06;101608.34;;;14.37;81.19
80184;BME280;69682;52.138;5.440;2023-07-20T05:04:32;101612.63;;;14.40;81.09
80184;BME280;69682;52.138;5.440;2023-07-20T05:07:04;101609.84;;;14.41;80.66
80184;BME280;69682;52.138;5.440;2023-07-20T05:09:31;101613.72;;;14.37;80.98
80184;BME280;69682;52.138;5.440;2023-07-20T05:11:57;101613.59;;;14.39;80.99
80184;BME280;69682;52.138;5.440;2023-07-20T05:14:24;101616.75;;;14.44;80.93
80184;BME280;69682;52.138;5.440;2023-07-20T05:16:51;101618.72;;;14.42;80.89
80184;BME280;69682;52.138;5.440;2023-07-20T05:19:17;101611.03;;;14.37;80.98
80184;BME280;69682;52.138;5.440;2023-07-20T05:21:44;101615.31;;;14.40;81.15
80184;BME280;69682;52.138;5.440;2023-07-20T05:24:11;101617.13;;;14.39;81.06
80184;BME280;69682;52.138;5.440;2023-07-20T05:26:37;101609.19;;;14.38;81.23
80184;BME280;69682;52.138;5.440;2023-07-20T05:29:05;101616.03;;;14.42;81.23
80184;BME280;69682;52.138;5.440;2023-07-20T05:31:31;101620.41;;;14.43;81.48
80184;BME280;69682;52.138;5.440;2023-07-20T05:33:58;101621.63;;;14.50;81.33
80184;BME280;69682;52.138;5.440;2023-07-20T05:36:25;101623.13;;;14.54;81.47
80184;BME280;69682;52.138;5.440;2023-07-20T05:38:51;101613.84;;;14.58;81.30
80184;BME280;69682;52.138;5.440;2023-07-20T05:41:18;101624.47;;;14.60;81.46
80184;BME280;69682;52.138;5.440;2023-07-20T05:43:44;101618.84;;;14.63;81.15
80184;BME280;69682;52.138;5.440;2023-07-20T05:46:11;101616.78;;;14.66;81.15
80184;BME280;69682;52.138;5.440;2023-07-20T05:48:38;101615.53;;;14.70;81.29
80184;BME280;69682;52.138;5.440;2023-07-20T05:51:04;101612.59;;;14.73;81.28
80184;BME280;69682;52.138;5.440;2023-07-20T05:53:31;101612.38;;;14.76;81.06
80184;BME280;69682;52.138;5.440;2023-07-20T05:55:57;101608.31;;;14.82;80.93
80184;BME280;69682;52.138;5.440;2023-07-20T05:58:24;101616.00;;;14.87;80.79
80184;BME280;69682;52.138;5.440;2023-07-20T06:00:51;101610.53;;;14.88;80.42
80184;BME280;69682;52.138;5.440;2023-07-20T06:03:17;101619.03;;;14.93;80.24
80184;BME280;69682;52.138;5.440;2023-07-20T06:05:45;101619.41;;;15.00;80.54
80184;BME280;69682;52.138;5.440;2023-07-20T06:08:12;101622.41;;;15.07;80.98
80184;BME280;69682;52.138;5.440;2023-07-20T06:10:39;101622.75;;;15.13;80.58
80184;BME280;69682;52.138;5.440;2023-07-20T06:13:07;101628.84;;;15.15;80.24
80184;BME280;69682;52.138;5.440;2023-07-20T06:15:34;101620.13;;;15.23;79.92
80184;BME280;69682;52.138;5.440;2023-07-20T06:18:05;101631.50;;;15.27;79.42
80184;BME280;69682;52.138;5.440;2023-07-20T06:20:32;101628.94;;;15.25;79.39
80184;BME280;69682;52.138;5.440;2023-07-20T06:22:59;101627.94;;;15.26;78.69
80184;BME280;69682;52.138;5.440;2023-07-20T06:25:26;101633.78;;;15.31;78.04
80184;BME280;69682;52.138;5.440;2023-07-20T06:27:52;101633.53;;;15.34;77.50
80184;BME280;69682;52.138;5.440;2023-07-20T06:30:20;101630.84;;;15.34;77.50
80184;BME280;69682;52.138;5.440;2023-07-20T06:32:47;101632.56;;;15.35;77.47
80184;BME280;69682;52.138;5.440;2023-07-20T06:35:14;101639.13;;;15.42;77.02
80184;BME280;69682;52.138;5.440;2023-07-20T06:37:41;101639.31;;;15.51;76.12
80184;BME280;69682;52.138;5.440;2023-07-20T06:40:08;101637.97;;;15.56;76.28
80184;BME280;69682;52.138;5.440;2023-07-20T06:42:38;101635.84;;;15.60;76.47
80184;BME280;69682;52.138;5.440;2023-07-20T06:45:08;101637.91;;;15.67;75.09
80184;BME280;69682;52.138;5.440;2023-07-20T06:47:35;101643.91;;;15.71;75.56
80184;BME280;69682;52.138;5.440;2023-07-20T06:50:01;101636.00;;;15.79;75.95
80184;BME280;69682;52.138;5.440;2023-07-20T06:52:28;101645.38;;;15.85;74.40
80184;BME280;69682;52.138;5.440;2023-07-20T06:54:55;101648.28;;;15.93;74.38
80184;BME280;69682;52.138;5.440;2023-07-20T06:57:23;101653.84;;;16.01;73.63
80184;BME280;69682;52.138;5.440;2023-07-20T06:59:50;101653.31;;;16.07;73.41
80184;BME280;69682;52.138;5.440;2023-07-20T07:02:17;101648.94;;;16.06;73.68
80184;BME280;69682;52.138;5.440;2023-07-20T07:04:43;101651.00;;;16.03;73.67
80184;BME280;69682;52.138;5.440;2023-07-20T07:07:10;101657.25;;;16.03;74.14
80184;BME280;69682;52.138;5.440;2023-07-20T07:09:37;101653.69;;;16.03;73.53
80184;BME280;69682;52.138;5.440;2023-07-20T07:12:04;101659.59;;;15.97;73.15
80184;BME280;69682;52.138;5.440;2023-07-20T07:14:30;101651.41;;;15.98;73.50
80184;BME280;69682;52.138;5.440;2023-07-20T07:16:59;101650.16;;;16.02;73.55
80184;BME280;69682;52.138;5.440;2023-07-20T07:19:29;101652.94;;;16.12;73.03
80184;BME280;69682;52.138;5.440;2023-07-20T07:21:56;101655.06;;;16.18;73.00
80184;BME280;69682;52.138;5.440;2023-07-20T07:24:26;101650.28;;;16.22;72.68
80184;BME280;69682;52.138;5.440;2023-07-20T07:26:55;101652.16;;;16.31;72.57
80184;BME280;69682;52.138;5.440;2023-07-20T07:29:22;101653.19;;;16.40;72.50
80184;BME280;69682;52.138;5.440;2023-07-20T07:31:48;101655.59;;;16.43;71.01
80184;BME280;69682;52.138;5.440;2023-07-20T07:34:15;101653.22;;;16.49;70.46
80184;BME280;69682;52.138;5.440;2023-07-20T07:36:41;101649.59;;;16.60;71.06
80184;BME280;69682;52.138;5.440;2023-07-20T07:39:08;101659.34;;;16.61;70.22
80184;BME280;69682;52.138;5.440;2023-07-20T07:41:38;101650.72;;;16.67;70.64
80184;BME280;69682;52.138;5.440;2023-07-20T07:44:05;101663.50;;;16.75;70.55
80184;BME280;69682;52.138;5.440;2023-07-20T07:46:32;101657.34;;;16.84;70.25
80184;BME280;69682;52.138;5.440;2023-07-20T07:48:59;101657.78;;;16.89;69.77
80184;BME280;69682;52.138;5.440;2023-07-20T07:51:25;101662.00;;;16.82;68.93
80184;BME280;69682;52.138;5.440;2023-07-20T07:53:53;101665.06;;;16.68;68.67
80184;BME280;69682;52.138;5.440;2023-07-20T07:56:20;101660.47;;;16.58;69.41
80184;BME280;69682;52.138;5.440;2023-07-20T07:58:50;101659.78;;;16.56;67.91
80184;BME280;69682;52.138;5.440;2023-07-20T08:01:18;101666.13;;;16.55;68.78
80184;BME280;69682;52.138;5.440;2023-07-20T08:03:48;101663.31;;;16.57;68.82
80184;BME280;69682;52.138;5.440;2023-07-20T08:06:15;101662.31;;;16.58;68.25
80184;BME280;69682;52.138;5.440;2023-07-20T08:08:42;101667.00;;;16.56;67.94
80184;BME280;69682;52.138;5.440;2023-07-20T08:11:09;101662.59;;;16.55;67.91
80184;BME280;69682;52.138;5.440;2023-07-20T08:13:37;101663.44;;;16.55;67.63
80184;BME280;69682;52.138;5.440;2023-07-20T08:16:03;101659.06;;;16.64;68.14
80184;BME280;69682;52.138;5.440;2023-07-20T08:18:32;101663.22;;;16.68;66.39
80184;BME280;69682;52.138;5.440;2023-07-20T08:20:59;101657.56;;;16.71;65.49
80184;BME280;69682;52.138;5.440;2023-07-20T08:23:26;101659.84;;;16.76;65.47
80184;BME280;69682;52.138;5.440;2023-07-20T08:25:54;101652.50;;;16.78;63.74
80184;BME280;69682;52.138;5.440;2023-07-20T08:28:20;101659.31;;;16.82;63.42
80184;BME280;69682;52.138;5.440;2023-07-20T08:30:48;101658.22;;;16.94;63.50
80184;BME280;69682;52.138;5.440;2023-07-20T08:33:17;101651.41;;;17.00;62.38
80184;BME280;69682;52.138;5.440;2023-07-20T08:35:47;101662.22;;;17.10;62.85
80184;BME280;69682;52.138;5.440;2023-07-20T08:38:14;101656.72;;;17.21;61.33
80184;BME280;69682;52.138;5.440;2023-07-20T08:40:42;101657.84;;;17.28;61.41
80184;BME280;69682;52.138;5.440;2023-07-20T08:43:13;101666.91;;;17.37;59.76
80184;BME280;69682;52.138;5.440;2023-07-20T08:45:44;101650.19;;;17.43;59.45
80184;BME280;69682;52.138;5.440;2023-07-20T08:48:11;101657.13;;;17.55;59.74
80184;BME280;69682;52.138;5.440;2023-07-20T08:50:38;101662.81;;;17.62;58.77
80184;BME280;69682;52.138;5.440;2023-07-20T08:53:06;101652.88;;;17.72;57.98
80184;BME280;69682;52.138;5.440;2023-07-20T08:55:34;101655.00;;;17.78;58.39
80184;BME280;69682;52.138;5.440;2023-07-20T08:58:02;101660.25;;;17.89;57.98
80184;BME280;69682;52.138;5.440;2023-07-20T09:00:30;101661.53;;;17.95;57.44
80184;BME280;69682;52.138;5.440;2023-07-20T09:02:58;101659.97;;;17.92;57.80
80184;BME280;69682;52.138;5.440;2023-07-20T09:05:27;101664.19;;;18.05;57.80
80184;BME280;69682;52.138;5.440;2023-07-20T09:07:53;101667.84;;;18.13;57.24
80184;BME280;69682;52.138;5.440;2023-07-20T09:10:21;101657.22;;;18.02;56.44
80184;BME280;69682;52.138;5.440;2023-07-20T09:12:48;101661.91;;;18.10;56.30
80184;BME280;69682;52.138;5.440;2023-07-20T09:15:15;101656.72;;;18.36;56.87
80184;BME280;69682;52.138;5.440;2023-07-20T09:17:47;101657.19;;;18.59;56.78
80184;BME280;69682;52.138;5.440;2023-07-20T09:20:16;101652.13;;;18.83;56.55
80184;BME280;69682;52.138;5.440;2023-07-20T09:22:48;101654.91;;;18.92;56.48
80184;BME280;69682;52.138;5.440;2023-07-20T09:25:17;101647.28;;;19.05;55.73
80184;BME280;69682;52.138;5.440;2023-07-20T09:27:48;101651.63;;;19.16;55.11
80184;BME280;69682;52.138;5.440;2023-07-20T09:30:18;101655.56;;;19.21;54.37
80184;BME280;69682;52.138;5.440;2023-07-20T09:32:46;101651.13;;;19.02;53.83
80184;BME280;69682;52.138;5.440;2023-07-20T09:35:20;101654.22;;;18.90;52.44
80184;BME280;69682;52.138;5.440;2023-07-20T09:37:54;101655.13;;;18.80;54.95
80184;BME280;69682;52.138;5.440;2023-07-20T09:40:44;101658.81;;;18.79;52.30
80184;BME280;69682;52.138;5.440;2023-07-20T09:43:15;101657.41;;;18.75;50.25
80184;BME280;69682;52.138;5.440;2023-07-20T09:45:45;101657.34;;;18.85;48.79
80184;BME280;69682;52.138;5.440;2023-07-20T09:48:14;101650.81;;;18.88;48.07
80184;BME280;69682;52.138;5.440;2023-07-20T09:50:50;101645.81;;;18.93;49.57
80184;BME280;69682;52.138;5.440;2023-07-20T09:53:19;101640.28;;;18.94;50.80
80184;BME280;69682;52.138;5.440;2023-07-20T09:55:47;101642.72;;;19.23;52.00
80184;BME280;69682;52.138;5.440;2023-07-20T09:58:15;101640.81;;;19.51;49.84
80184;BME280;69682;52.138;5.440;2023-07-20T10:00:45;101646.22;;;19.69;49.08
80184;BME280;69682;52.138;5.440;2023-07-20T10:03:28;101640.13;;;19.93;49.87
80184;BME280;69682;52.138;5.440;2023-07-20T10:06:02;101641.81;;;20.20;49.10
80184;BME280;69682;52.138;5.440;2023-07-20T10:08:35;101644.81;;;20.35;49.28
80184;BME280;69682;52.138;5.440;2023-07-20T10:11:07;101638.13;;;20.56;49.99
80184;BME280;69682;52.138;5.440;2023-07-20T10:13:37;101638.44;;;20.45;47.47
80184;BME280;69682;52.138;5.440;2023-07-20T10:16:11;101634.78;;;20.02;47.86
80184;BME280;69682;52.138;5.440;2023-07-20T10:18:47;101645.16;;;20.06;46.65
80184;BME280;69682;52.138;5.440;2023-07-20T10:21:19;101640.38;;;20.34;44.06
80184;BME280;69682;52.138;5.440;2023-07-20T10:23:49;101639.09;;;20.47;45.53
80184;BME280;69682;52.138;5.440;2023-07-20T10:26:16;101631.59;;;20.67;43.58
80184;BME280;69682;52.138;5.440;2023-07-20T10:28:43;101637.72;;;20.42;44.50
80184;BME280;69682;52.138;5.440;2023-07-20T10:31:10;101635.53;;;20.46;43.74
80184;BME280;69682;52.138;5.440;2023-07-20T10:33:38;101631.97;;;20.72;43.77
80184;BME280;69682;52.138;5.440;2023-07-20T10:36:06;101633.94;;;20.61;43.28
80184;BME280;69682;52.138;5.440;2023-07-20T10:41:19;101626.69;;;20.62;43.14
80184;BME280;69682;52.138;5.440;2023-07-20T10:43:47;101624.00;;;20.36;43.76
80184;BME280;69682;52.138;5.440;2023-07-20T10:46:14;101626.72;;;20.44;43.92
80184;BME280;69682;52.138;5.440;2023-07-20T10:49:04;101615.16;;;20.60;44.70
80184;BME280;69682;52.138;5.440;2023-07-20T10:51:47;101617.38;;;20.64;43.29
80184;BME280;69682;52.138;5.440;2023-07-20T10:56:46;101617.16;;;21.17;42.18
80184;BME280;69682;52.138;5.440;2023-07-20T11:01:47;101608.88;;;21.67;40.74
80184;BME280;69682;52.138;5.440;2023-07-20T11:04:16;101612.63;;;21.74;40.76
80184;BME280;69682;52.138;5.440;2023-07-20T11:06:46;101606.66;;;21.87;41.07
80184;BME280;69682;52.138;5.440;2023-07-20T11:09:22;101599.31;;;22.12;39.75
80184;BME280;69682;52.138;5.440;2023-07-20T11:12:09;101598.84;;;22.00;41.18
80184;BME280;69682;52.138;5.440;2023-07-20T11:14:40;101606.84;;;21.53;42.18
80184;BME280;69682;52.138;5.440;2023-07-20T11:17:11;101605.69;;;21.64;42.60
80184;BME280;69682;52.138;5.440;2023-07-20T11:19:39;101609.56;;;21.77;41.76
80184;BME280;69682;52.138;5.440;2023-07-20T11:22:10;101605.47;;;21.90;41.79
80184;BME280;69682;52.138;5.440;2023-07-20T11:24:38;101597.25;;;22.14;41.75
80184;BME280;69682;52.138;5.440;2023-07-20T11:27:06;101595.31;;;22.48;41.06
80184;BME280;69682;52.138;5.440;2023-07-20T11:29:32;101594.88;;;22.36;39.80
80184;BME280;69682;52.138;5.440;2023-07-20T11:32:01;101594.41;;;22.24;38.50
80184;BME280;69682;52.138;5.440;2023-07-20T11:34:32;101591.53;;;22.09;39.82
80184;BME280;69682;52.138;5.440;2023-07-20T11:37:00;101578.38;;;22.37;40.26
80184;BME280;69682;52.138;5.440;2023-07-20T11:39:29;101584.69;;;22.69;39.96
80184;BME280;69682;52.138;5.440;2023-07-20T11:41:57;101582.00;;;22.92;40.20
80184;BME280;69682;52.138;5.440;2023-07-20T11:44:28;101583.00;;;22.68;37.86
80184;BME280;69682;52.138;5.440;2023-07-20T11:47:09;101583.19;;;22.58;39.99
80184;BME280;69682;52.138;5.440;2023-07-20T11:49:37;101580.44;;;22.66;38.03
80184;BME280;69682;52.138;5.440;2023-07-20T11:52:06;101582.31;;;22.66;37.44
80184;BME280;69682;52.138;5.440;2023-07-20T11:54:38;101572.81;;;22.93;37.75
80184;BME280;69682;52.138;5.440;2023-07-20T11:57:06;101573.16;;;23.21;36.93
80184;BME280;69682;52.138;5.440;2023-07-20T11:59:33;101574.78;;;23.07;35.96
80184;BME280;69682;52.138;5.440;2023-07-20T12:02:03;101567.41;;;22.85;36.92
80184;BME280;69682;52.138;5.440;2023-07-20T12:04:33;101571.91;;;22.78;36.24
80184;BME280;69682;52.138;5.440;2023-07-20T12:07:00;101571.75;;;23.02;35.82
80184;BME280;69682;52.138;5.440;2023-07-20T12:09:27;101575.94;;;23.13;35.85
80184;BME280;69682;52.138;5.440;2023-07-20T12:12:14;101581.69;;;23.18;36.85
80184;BME280;69682;52.138;5.440;2023-07-20T12:14:40;101570.91;;;23.25;36.75
80184;BME280;69682;52.138;5.440;2023-07-20T12:17:08;101567.72;;;22.98;36.21
80184;BME280;69682;52.138;5.440;2023-07-20T12:19:38;101565.66;;;23.00;35.94
80184;BME280;69682;52.138;5.440;2023-07-20T12:22:06;101555.44;;;23.25;35.23
80184;BME280;69682;52.138;5.440;2023-07-20T12:24:34;101556.84;;;23.21;36.18
80184;BME280;69682;52.138;5.440;2023-07-20T12:27:01;101555.91;;;23.29;36.62
80184;BME280;69682;52.138;5.440;2023-07-20T12:29:28;101550.59;;;23.35;36.85
80184;BME280;69682;52.138;5.440;2023-07-20T12:31:55;101556.66;;;23.23;37.83
80184;BME280;69682;52.138;5.440;2023-07-20T12:34:21;101555.69;;;23.16;37.28
80184;BME280;69682;52.138;5.440;2023-07-20T12:36:48;101564.81;;;23.00;36.06
80184;BME280;69682;52.138;5.440;2023-07-20T12:39:14;101552.50;;;22.81;37.24
80184;BME280;69682;52.138;5.440;2023-07-20T12:41:41;101561.00;;;22.55;37.91
80184;BME280;69682;52.138;5.440;2023-07-20T12:44:08;101556.22;;;22.57;38.51
80184;BME280;69682;52.138;5.440;2023-07-20T12:46:34;101553.16;;;22.60;39.14
80184;BME280;69682;52.138;5.440;2023-07-20T12:49:03;101551.19;;;22.77;38.89
80184;BME280;69682;52.138;5.440;2023-07-20T12:51:30;101543.72;;;22.71;38.85
80184;BME280;69682;52.138;5.440;2023-07-20T12:53:57;101552.59;;;22.64;38.78
80184;BME280;69682;52.138;5.440;2023-07-20T12:56:23;101552.59;;;22.41;39.00
80184;BME280;69682;52.138;5.440;2023-07-20T12:58:53;101547.50;;;22.38;38.83
80184;BME280;69682;52.138;5.440;2023-07-20T13:01:19;101555.94;;;22.43;39.04
80184;BME280;69682;52.138;5.440;2023-07-20T13:03:46;101550.56;;;22.35;38.92
80184;BME280;69682;52.138;5.440;2023-07-20T13:06:16;101553.81;;;22.31;39.91
80184;BME280;69682;52.138;5.440;2023-07-20T13:08:45;101548.50;;;22.37;41.53
80184;BME280;69682;52.138;5.440;2023-07-20T13:11:12;101542.84;;;22.47;40.33
80184;BME280;69682;52.138;5.440;2023-07-20T13:13:38;101536.47;;;22.40;39.63